Time;durP1;ratioP1;P1;durP2;ratioP2;P2;SDS_P1;SDS_P2;PMS_P1;PMS_P2;Temp;Humidity;BMP_temperature;BMP_pressure;BME280_temperature;BME280_humidity;BME280_pressure;Samples;Min_cycle;Max_cycle;Signal;HPM_P1;HPM_P2
2022/06/26 00:01:34;;;;;;;35.13;33.40;;;17.40;99.90;;;;;;5048969;28;20278;-79
2022/06/26 00:04:00;;;;;;;34.87;32.87;;;17.30;99.90;;;;;;5039197;28;20187;-79
2022/06/26 00:06:27;;;;;;;38.13;36.27;;;17.30;99.90;;;;;;5039290;28;20203;-79
2022/06/26 00:08:52;;;;;;;41.57;39.53;;;17.20;99.90;;;;;;5037784;28;20206;-79
2022/06/26 00:11:19;;;;;;;54.10;51.37;;;17.10;99.90;;;;;;5042579;28;20236;-79
2022/06/26 00:13:44;;;;;;;186.80;177.00;;;17.10;99.90;;;;;;5056644;28;20206;-79
2022/06/26 00:16:10;;;;;;;229.20;216.97;;;17.00;99.90;;;;;;5056848;28;20258;-79
2022/06/26 00:18:36;;;;;;;223.70;212.13;;;17.00;99.90;;;;;;5047385;28;20257;-79
2022/06/26 00:21:03;;;;;;;271.17;256.57;;;17.00;99.90;;;;;;5038105;28;20179;-79
2022/06/26 00:23:28;;;;;;;273.67;259.17;;;17.00;99.90;;;;;;5038260;28;20182;-79
2022/06/26 00:25:54;;;;;;;272.97;258.33;;;17.00;99.90;;;;;;5037168;28;20187;-79
2022/06/26 00:28:20;;;;;;;300.90;284.07;;;17.00;99.90;;;;;;5031770;28;20199;-77
2022/06/26 00:30:46;;;;;;;282.10;266.80;;;17.00;99.90;;;;;;5032376;28;20183;-77
2022/06/26 00:33:12;;;;;;;289.43;273.33;;;17.10;99.90;;;;;;5032424;28;20242;-77
2022/06/26 00:35:38;;;;;;;107.23;101.53;;;17.10;99.90;;;;;;5033009;28;20190;-79
2022/06/26 00:38:04;;;;;;;147.90;139.73;;;17.10;99.90;;;;;;5033513;28;20199;-78
2022/06/26 00:40:30;;;;;;;222.87;210.93;;;17.10;99.90;;;;;;5036094;28;20230;-78
2022/06/26 00:42:56;;;;;;;162.80;154.30;;;17.10;99.90;;;;;;5038646;28;20202;-78
2022/06/26 00:45:21;;;;;;;88.60;84.00;;;17.10;99.90;;;;;;5036354;28;20563;-78
2022/06/26 00:47:47;;;;;;;71.43;67.77;;;17.10;99.90;;;;;;5035880;28;20302;-78
2022/06/26 00:50:13;;;;;;;31.00;29.33;;;17.10;99.90;;;;;;5037304;28;20662;-78
2022/06/26 00:52:40;;;;;;;11.53;10.53;;;17.20;99.90;;;;;;5034819;28;20223;-78
2022/06/26 00:55:07;;;;;;;8.23;6.90;;;17.20;99.90;;;;;;5048246;28;20251;-78
2022/06/26 00:57:34;;;;;;;15.43;14.50;;;17.20;99.90;;;;;;5053246;28;20190;-77
2022/06/26 01:00:01;;;;;;;17.17;16.20;;;17.20;99.90;;;;;;5041995;28;20171;-78
2022/06/26 01:02:26;;;;;;;9.50;9.00;;;17.20;99.90;;;;;;5051042;28;20232;-78
2022/06/26 01:04:52;;;;;;;22.97;20.87;;;17.30;99.90;;;;;;5036097;28;20183;-78
2022/06/26 01:07:18;;;;;;;15.27;14.40;;;17.30;99.90;;;;;;5034007;28;20199;-78
2022/06/26 01:09:44;;;;;;;39.07;36.97;;;17.30;99.90;;;;;;5034770;28;20651;-78
2022/06/26 01:12:10;;;;;;;41.63;39.57;;;17.30;99.90;;;;;;5036168;28;20218;-78
2022/06/26 01:14:37;;;;;;;9.00;8.47;;;17.30;99.90;;;;;;5035819;28;20179;-78
2022/06/26 01:17:03;;;;;;;35.23;33.33;;;17.40;99.90;;;;;;5034443;28;20543;-77
2022/06/26 01:19:30;;;;;;;41.70;39.30;;;17.30;99.90;;;;;;5033080;28;20179;-78
2022/06/26 01:21:56;;;;;;;163.77;155.33;;;17.30;99.90;;;;;;5034087;28;20252;-78
2022/06/26 01:24:22;;;;;;;61.60;58.40;;;17.30;99.90;;;;;;5035532;28;20258;-77
2022/06/26 01:26:48;;;;;;;42.57;39.93;;;17.30;99.90;;;;;;5034281;28;20187;-78
2022/06/26 01:29:14;;;;;;;79.03;74.57;;;17.30;99.90;;;;;;5046760;28;20170;-78
2022/06/26 01:31:40;;;;;;;32.87;30.80;;;17.40;99.90;;;;;;5032936;28;20179;-77
2022/06/26 01:34:07;;;;;;;42.80;40.47;;;17.30;99.90;;;;;;5032067;28;20214;-77
2022/06/26 01:36:35;;;;;;;50.00;47.03;;;17.30;99.90;;;;;;5034365;28;20186;-78
2022/06/26 01:39:00;;;;;;;32.03;30.37;;;17.40;99.90;;;;;;5041979;28;20198;-77
2022/06/26 01:41:26;;;;;;;14.40;13.33;;;17.40;99.90;;;;;;5052090;28;20197;-77
2022/06/26 01:43:52;;;;;;;9.27;8.67;;;17.40;99.90;;;;;;5047639;28;20186;-78
2022/06/26 01:46:20;;;;;;;10.20;9.53;;;17.40;99.90;;;;;;5048175;28;20190;-78
2022/06/26 01:48:46;;;;;;;10.80;10.20;;;17.40;99.90;;;;;;5035080;28;20211;-78
2022/06/26 01:51:12;;;;;;;12.00;11.33;;;17.40;99.90;;;;;;5046507;28;20187;-78
2022/06/26 01:53:38;;;;;;;20.80;19.50;;;17.50;99.90;;;;;;5044571;28;20269;-77
2022/06/26 01:56:04;;;;;;;51.47;48.70;;;17.50;99.90;;;;;;5045247;28;20167;-77
2022/06/26 01:58:30;;;;;;;70.77;66.90;;;17.50;99.90;;;;;;5042729;28;20219;-78
2022/06/26 02:00:56;;;;;;;55.63;52.80;;;17.50;99.90;;;;;;5033288;28;20174;-78
2022/06/26 02:03:25;;;;;;;52.90;49.83;;;17.40;99.90;;;;;;5033196;28;20207;-77
2022/06/26 02:05:51;;;;;;;49.67;47.03;;;17.40;99.90;;;;;;5032018;28;20186;-77
2022/06/26 02:08:17;;;;;;;29.33;27.43;;;17.40;99.90;;;;;;5032375;28;20202;-78
2022/06/26 02:13:42;;;;;;;16.63;15.40;;;17.40;99.90;;;;;;5053559;28;20210;-78
2022/06/26 02:16:13;;;;;;;11.27;10.47;;;17.40;99.90;;;;;;5037009;28;20266;-78
2022/06/26 02:18:41;;;;;;;13.30;12.60;;;17.40;99.90;;;;;;5038557;28;20563;-78
2022/06/26 02:21:08;;;;;;;27.57;26.20;;;17.50;99.90;;;;;;5042530;28;20205;-78
2022/06/26 02:23:36;;;;;;;63.23;59.87;;;17.50;99.90;;;;;;5042512;28;20179;-78
2022/06/26 02:26:04;;;;;;;52.83;50.07;;;17.60;99.90;;;;;;5036155;28;20702;-78
2022/06/26 02:28:30;;;;;;;39.07;37.03;;;17.70;99.90;;;;;;5033656;28;20629;-77
2022/06/26 02:30:56;;;;;;;32.67;30.57;;;17.70;99.90;;;;;;5033126;28;20187;-77
2022/06/26 02:33:23;;;;;;;26.10;24.80;;;17.80;99.90;;;;;;5034287;28;20567;-77
2022/06/26 02:35:49;;;;;;;72.27;68.17;;;17.70;99.90;;;;;;5034343;28;20183;-77
2022/06/26 02:38:18;;;;;;;241.40;229.13;;;17.70;99.90;;;;;;5033332;28;20207;-77
2022/06/26 02:40:44;;;;;;;246.40;233.20;;;17.70;99.90;;;;;;5034227;28;20653;-77
2022/06/26 02:43:10;;;;;;;227.10;215.27;;;17.70;99.90;;;;;;5033459;28;20210;-77
2022/06/26 02:45:36;;;;;;;83.57;79.17;;;17.70;99.90;;;;;;5032999;28;20198;-77
2022/06/26 02:48:02;;;;;;;95.07;90.10;;;17.70;99.90;;;;;;5032367;28;20199;-79
2022/06/26 02:50:27;;;;;;;115.00;108.97;;;17.70;99.90;;;;;;5034400;28;20186;-77
2022/06/26 02:52:53;;;;;;;127.43;120.90;;;17.70;99.90;;;;;;5034443;28;20210;-77
2022/06/26 02:55:19;;;;;;;158.97;150.87;;;17.70;99.90;;;;;;5033963;28;20211;-77
2022/06/26 02:57:45;;;;;;;71.13;67.33;;;17.60;99.90;;;;;;5031754;28;20616;-77
2022/06/26 03:00:13;;;;;;;31.90;30.03;;;17.60;99.90;;;;;;5032694;28;20185;-77
2022/06/26 03:02:39;;;;;;;27.83;26.43;;;17.50;99.90;;;;;;5033797;28;20735;-77
2022/06/26 03:05:05;;;;;;;20.80;19.70;;;17.40;99.90;;;;;;5032883;28;20270;-77
2022/06/26 03:07:31;;;;;;;16.33;15.43;;;17.40;99.90;;;;;;5032955;28;20209;-77
2022/06/26 03:09:57;;;;;;;13.53;12.87;;;17.50;99.90;;;;;;5034559;28;20636;-77
2022/06/26 03:12:22;;;;;;;13.57;12.47;;;17.50;99.90;;;;;;5034922;28;20269;-77
2022/06/26 03:14:48;;;;;;;16.53;15.47;;;17.60;99.90;;;;;;5033316;28;20198;-77
2022/06/26 03:17:15;;;;;;;24.07;22.77;;;17.60;99.90;;;;;;5038907;28;20198;-78
2022/06/26 03:19:41;;;;;;;23.67;22.20;;;17.70;99.90;;;;;;5054164;28;20178;-78
2022/06/26 03:22:07;;;;;;;29.77;28.07;;;17.60;99.90;;;;;;5053236;28;20183;-78
2022/06/26 03:24:33;;;;;;;28.07;26.23;;;17.60;99.90;;;;;;5033758;28;20209;-77
2022/06/26 03:26:59;;;;;;;24.50;23.13;;;17.70;99.90;;;;;;5031991;28;20240;-77
2022/06/26 03:29:25;;;;;;;85.23;80.87;;;17.80;99.90;;;;;;5039405;28;20183;-77
2022/06/26 03:31:51;;;;;;;222.27;211.17;;;17.80;99.90;;;;;;5052186;28;20187;-77
2022/06/26 03:34:17;;;;;;;244.53;231.40;;;17.70;99.90;;;;;;5034241;28;20210;-77
2022/06/26 03:36:43;;;;;;;203.40;193.00;;;17.70;99.90;;;;;;5032985;28;20179;-76
2022/06/26 03:39:09;;;;;;;238.90;226.73;;;17.70;99.90;;;;;;5032617;28;20718;-77
2022/06/26 03:41:35;;;;;;;339.53;321.03;;;17.70;99.90;;;;;;5034174;28;20211;-78
2022/06/26 03:44:01;;;;;;;255.13;241.93;;;17.70;99.90;;;;;;5035409;28;20186;-77
2022/06/26 03:46:27;;;;;;;198.73;188.70;;;17.70;99.90;;;;;;5035990;28;20183;-78
2022/06/26 03:48:53;;;;;;;82.80;78.60;;;17.70;99.90;;;;;;5039088;28;20199;-78
2022/06/26 03:51:18;;;;;;;49.10;46.60;;;17.60;99.90;;;;;;5036493;28;20210;-78
2022/06/26 03:53:45;;;;;;;35.70;33.67;;;17.60;99.90;;;;;;5043620;28;20218;-78
2022/06/26 03:56:10;;;;;;;25.30;23.97;;;17.60;99.90;;;;;;5053678;28;20198;-78
2022/06/26 03:58:36;;;;;;;115.07;108.97;;;17.80;99.90;;;;;;5051175;28;20289;-78
2022/06/26 04:01:02;;;;;;;215.07;204.10;;;17.80;99.90;;;;;;5035672;28;20266;-78
2022/06/26 04:03:28;;;;;;;341.77;323.07;;;18.00;99.90;;;;;;5034713;28;20787;-78
2022/06/26 04:05:54;;;;;;;401.67;379.07;;;18.10;99.90;;;;;;5034163;28;20194;-78
2022/06/26 04:08:19;;;;;;;372.67;351.97;;;18.10;99.90;;;;;;5033121;28;20269;-78
2022/06/26 04:10:45;;;;;;;383.73;362.43;;;18.10;99.90;;;;;;5035672;28;20190;-78
2022/06/26 04:13:12;;;;;;;293.23;277.87;;;18.20;99.90;;;;;;5035580;28;20252;-78
2022/06/26 04:15:40;;;;;;;154.30;146.47;;;18.20;99.90;;;;;;5034285;28;20186;-78
2022/06/26 04:18:06;;;;;;;64.53;61.23;;;18.30;99.90;;;;;;5033312;28;20282;-77
2022/06/26 04:20:33;;;;;;;33.70;31.87;;;18.40;99.90;;;;;;5036392;28;20237;-77
2022/06/26 04:23:02;;;;;;;21.17;19.90;;;18.40;99.90;;;;;;5035990;28;20230;-77
2022/06/26 04:25:30;;;;;;;8.33;7.90;;;18.50;99.90;;;;;;5036387;28;20233;-78
2022/06/26 04:27:56;;;;;;;11.33;10.73;;;18.70;99.90;;;;;;5035341;28;20198;-78
2022/06/26 04:30:23;;;;;;;6.77;4.83;;;18.90;99.90;;;;;;5035826;28;20209;-78
2022/06/26 04:32:50;;;;;;;6.37;5.87;;;19.00;99.90;;;;;;5035441;28;20210;-77
2022/06/26 04:35:16;;;;;;;33.87;32.07;;;19.10;99.90;;;;;;5035512;28;20182;-78
2022/06/26 04:37:42;;;;;;;184.90;175.40;;;19.20;99.90;;;;;;5034575;28;20717;-78
2022/06/26 04:40:11;;;;;;;308.13;292.13;;;19.30;99.90;;;;;;5037380;28;20179;-78
2022/06/26 04:42:40;;;;;;;266.40;252.83;;;19.40;99.90;;;;;;5045414;28;20167;-77
2022/06/26 04:45:07;;;;;;;225.23;213.47;;;19.50;99.90;;;;;;5049704;28;20171;-78
2022/06/26 04:47:33;;;;;;;184.13;174.70;;;19.50;99.90;;;;;;5046028;28;20264;-78
2022/06/26 04:49:59;;;;;;;169.70;161.07;;;19.50;99.90;;;;;;5039108;28;20211;-78
2022/06/26 04:52:25;;;;;;;142.20;135.00;;;19.50;99.90;;;;;;5049433;28;20215;-77
2022/06/26 04:54:51;;;;;;;140.63;133.40;;;19.40;99.90;;;;;;5055566;28;20247;-78
2022/06/26 04:57:17;;;;;;;133.63;126.80;;;19.40;99.90;;;;;;5062675;22;20747;-76
2022/06/26 04:59:46;;;;;;;151.57;143.70;;;19.50;99.90;;;;;;5011865;28;20570;-76
2022/06/26 05:02:11;;;;;;;151.07;143.17;;;19.60;99.90;;;;;;5014324;28;20214;-75
2022/06/26 05:04:38;;;;;;;128.80;121.87;;;19.70;99.90;;;;;;5014281;28;20187;-76
2022/06/26 05:07:04;;;;;;;106.13;100.93;;;19.70;99.90;;;;;;5013673;28;20184;-76
2022/06/26 05:09:31;;;;;;;87.03;82.70;;;19.80;99.90;;;;;;5031549;28;20206;-76
2022/06/26 05:11:57;;;;;;;86.50;82.07;;;19.80;99.90;;;;;;5029993;28;20228;-77
2022/06/26 05:14:23;;;;;;;56.23;53.33;;;20.00;99.90;;;;;;5031496;28;20179;-77
2022/06/26 05:16:49;;;;;;;8.03;7.63;;;20.30;99.90;;;;;;5030663;28;20237;-77
2022/06/26 05:19:15;;;;;;;5.07;4.78;;;20.60;99.90;;;;;;5030002;28;20207;-76
2022/06/26 05:21:41;;;;;;;8.88;8.27;;;20.80;99.90;;;;;;5031536;28;20179;-77
2022/06/26 05:24:07;;;;;;;20.98;19.90;;;21.00;99.90;;;;;;5031269;28;20256;-76
2022/06/26 05:26:33;;;;;;;20.80;19.80;;;21.30;99.90;;;;;;5029817;28;20651;-76
2022/06/26 05:28:59;;;;;;;4.97;4.68;;;21.60;99.90;;;;;;5030248;28;20344;-76
2022/06/26 05:31:25;;;;;;;5.13;4.78;;;21.60;99.90;;;;;;5031107;28;20695;-76
2022/06/26 05:33:51;;;;;;;6.20;4.00;;;21.50;99.90;;;;;;5029920;28;20229;-76
2022/06/26 05:36:17;;;;;;;4.30;4.10;;;21.50;99.90;;;;;;5029936;28;20265;-76
2022/06/26 05:38:43;;;;;;;4.57;4.38;;;21.40;99.90;;;;;;5028988;28;20298;-77
2022/06/26 05:41:09;;;;;;;4.95;4.75;;;21.30;99.90;;;;;;5031072;28;20179;-76
2022/06/26 05:43:35;;;;;;;5.80;5.50;;;21.30;99.90;;;;;;5030934;28;20183;-76
2022/06/26 05:46:01;;;;;;;5.20;5.00;;;21.10;99.90;;;;;;5031006;28;20194;-76
2022/06/26 05:48:27;;;;;;;8.73;8.30;;;21.20;99.90;;;;;;5030096;28;20207;-77
2022/06/26 05:50:53;;;;;;;6.15;5.85;;;21.30;99.90;;;;;;5030231;28;20774;-77
2022/06/26 05:53:21;;;;;;;6.18;5.78;;;21.40;99.90;;;;;;5030867;28;20222;-76
2022/06/26 05:55:47;;;;;;;5.07;4.78;;;21.50;99.90;;;;;;5030779;28;20625;-77
2022/06/26 05:58:13;;;;;;;4.47;4.28;;;21.60;99.90;;;;;;5029424;28;20242;-77
2022/06/26 06:00:39;;;;;;;4.80;4.50;;;21.70;99.90;;;;;;5032630;28;20263;-76
2022/06/26 06:03:06;;;;;;;4.78;4.57;;;21.70;99.90;;;;;;5032220;28;20210;-77
2022/06/26 06:05:32;;;;;;;3.85;3.60;;;21.80;99.90;;;;;;5031360;28;20175;-77
2022/06/26 06:07:58;;;;;;;4.50;4.20;;;22.00;99.90;;;;;;5029857;28;20222;-77
2022/06/26 06:10:25;;;;;;;4.63;4.25;;;22.00;99.90;;;;;;5030668;28;20233;-77
2022/06/26 06:12:52;;;;;;;4.40;4.13;;;22.00;99.90;;;;;;5030898;28;20269;-77
2022/06/26 06:15:21;;;;;;;4.45;4.07;;;22.00;99.90;;;;;;5030865;28;20175;-77
2022/06/26 06:17:47;;;;;;;5.03;4.65;;;22.10;99.90;;;;;;5029717;28;20203;-77
2022/06/26 06:20:19;;;;;;;5.63;5.15;;;22.10;99.90;;;;;;5029579;28;20179;-77
2022/06/26 06:22:53;;;;;;;6.00;5.72;;;22.10;99.90;;;;;;5030464;28;20179;-77
2022/06/26 06:25:20;;;;;;;6.05;5.63;;;22.20;99.90;;;;;;5029400;28;20563;-77
2022/06/26 06:27:46;;;;;;;4.35;4.13;;;22.30;99.90;;;;;;5029777;28;20202;-77
2022/06/26 06:30:14;;;;;;;4.22;3.78;;;22.40;99.90;;;;;;5029400;28;20214;-77
2022/06/26 06:32:41;;;;;;;4.00;3.70;;;22.60;99.90;;;;;;5030406;28;20203;-77
2022/06/26 06:35:08;;;;;;;4.88;4.68;;;22.70;99.90;;;;;;5030939;28;20194;-77
2022/06/26 06:37:34;;;;;;;6.68;6.28;;;22.80;99.90;;;;;;5028395;28;20729;-77
2022/06/26 06:40:00;;;;;;;9.70;9.15;;;22.90;99.90;;;;;;5030417;28;20266;-77
2022/06/26 06:42:26;;;;;;;29.25;27.85;;;23.20;99.90;;;;;;5030802;28;20266;-77
2022/06/26 06:44:52;;;;;;;10.65;10.18;;;23.40;99.90;;;;;;5029519;28;20321;-77
2022/06/26 06:47:17;;;;;;;6.47;6.07;;;23.60;99.90;;;;;;5029636;28;20249;-77
2022/06/26 06:49:43;;;;;;;20.77;19.85;;;23.90;99.90;;;;;;5030389;28;20217;-77
2022/06/26 06:52:09;;;;;;;18.98;17.98;;;24.00;99.90;;;;;;5031590;28;20199;-77
2022/06/26 06:54:35;;;;;;;23.60;22.52;;;24.00;99.90;;;;;;5031216;28;20183;-77
2022/06/26 06:57:01;;;;;;;25.73;24.10;;;24.00;99.90;;;;;;5031343;28;20175;-77
2022/06/26 06:59:27;;;;;;;29.42;28.02;;;24.30;99.90;;;;;;5030269;28;20237;-77
2022/06/26 07:01:53;;;;;;;27.00;25.75;;;24.40;99.90;;;;;;5031328;28;20270;-77
2022/06/26 07:04:19;;;;;;;33.30;31.40;;;24.40;99.90;;;;;;5033624;28;20202;-77
2022/06/26 07:06:45;;;;;;;31.25;29.70;;;24.50;99.90;;;;;;5033136;28;20708;-77
2022/06/26 07:09:11;;;;;;;32.10;30.40;;;24.70;99.90;;;;;;5033446;28;20231;-77
2022/06/26 07:11:38;;;;;;;24.17;23.13;;;24.70;99.90;;;;;;5033867;28;20270;-78
2022/06/26 07:14:04;;;;;;;21.25;20.23;;;24.80;99.90;;;;;;5032384;28;20703;-77
2022/06/26 07:16:30;;;;;;;22.17;21.15;;;25.10;99.90;;;;;;5032372;28;20198;-77
2022/06/26 07:18:56;;;;;;;13.23;12.40;;;25.40;99.90;;;;;;5031369;28;20815;-77
2022/06/26 07:21:22;;;;;;;8.52;8.02;;;25.50;99.90;;;;;;5033552;28;20179;-77
2022/06/26 07:23:47;;;;;;;11.00;10.50;;;25.80;99.90;;;;;;5033447;28;20183;-77
2022/06/26 07:26:13;;;;;;;5.45;5.15;;;26.50;99.90;;;;;;5032233;28;20232;-77
2022/06/26 07:28:39;;;;;;;6.45;6.15;;;27.40;99.90;;;;;;5032546;28;20203;-77
2022/06/26 07:31:05;;;;;;;11.27;10.50;;;28.40;99.90;;;;;;5033343;28;20183;-77
2022/06/26 07:36:15;;;;;;;15.68;14.80;;;28.50;99.90;;;;;;5036351;28;20183;-76
2022/06/26 07:38:41;;;;;;;11.50;11.00;;;28.70;99.90;;;;;;5035893;28;20201;-77
2022/06/26 07:41:07;;;;;;;8.55;8.05;;;29.00;98.90;;;;;;5033953;28;20239;-77
2022/06/26 07:43:34;;;;;;;5.85;5.63;;;29.20;98.30;;;;;;5035669;28;20190;-77
2022/06/26 07:45:59;;;;;;;5.15;4.95;;;29.60;96.80;;;;;;5033790;28;20187;-77
2022/06/26 07:48:25;;;;;;;4.28;3.88;;;29.80;95.40;;;;;;5032153;28;20199;-78
2022/06/26 07:50:51;;;;;;;3.50;3.40;;;29.80;94.80;;;;;;5033208;28;20284;-77
2022/06/26 07:53:18;;;;;;;3.63;3.53;;;29.80;94.90;;;;;;5032737;28;20214;-77
2022/06/26 07:55:44;;;;;;;4.05;3.85;;;29.80;93.80;;;;;;5033019;28;20179;-77
2022/06/26 07:58:09;;;;;;;3.50;3.40;;;30.20;94.10;;;;;;5031999;28;20303;-77
2022/06/26 08:00:35;;;;;;;4.80;3.40;;;30.40;93.40;;;;;;5031723;28;20182;-77
2022/06/26 08:03:13;;;;;;;4.78;4.57;;;30.30;92.90;;;;;;5032610;28;20592;-76
2022/06/26 08:05:40;;;;;;;5.47;5.10;;;30.30;92.50;;;;;;5032522;28;20182;-76
2022/06/26 08:08:07;;;;;;;8.02;7.63;;;30.60;92.80;;;;;;5031660;28;20203;-75
2022/06/26 08:10:33;;;;;;;10.93;10.32;;;30.90;91.70;;;;;;5032511;28;20487;-76
2022/06/26 08:12:59;;;;;;;8.63;8.00;;;31.00;90.90;;;;;;5032118;28;20683;-76
2022/06/26 08:15:26;;;;;;;8.43;8.13;;;30.50;91.20;;;;;;5032526;28;20543;-77
2022/06/26 08:17:52;;;;;;;5.57;5.38;;;30.00;90.80;;;;;;5031644;28;20298;-76
2022/06/26 08:20:18;;;;;;;3.90;3.80;;;29.70;92.00;;;;;;5032665;28;20660;-76
2022/06/26 08:22:43;;;;;;;3.17;2.97;;;29.40;92.90;;;;;;5032483;28;20557;-77
2022/06/26 08:25:10;;;;;;;2.97;2.88;;;28.90;92.80;;;;;;5035437;28;20686;-76
2022/06/26 08:27:35;;;;;;;3.38;3.17;;;28.60;94.10;;;;;;5032010;28;20199;-76
2022/06/26 08:30:02;;;;;;;3.17;2.97;;;29.00;94.00;;;;;;5031069;28;20661;-76
2022/06/26 08:32:28;;;;;;;3.72;3.00;;;29.50;93.20;;;;;;5032034;28;20253;-76
2022/06/26 08:34:54;;;;;;;2.92;2.83;;;29.90;93.50;;;;;;5032012;28;20538;-76
2022/06/26 08:37:20;;;;;;;3.08;2.97;;;29.90;93.00;;;;;;5031190;28;20182;-77
2022/06/26 08:39:46;;;;;;;3.85;3.65;;;30.10;91.80;;;;;;5032025;28;20190;-77
2022/06/26 08:42:12;;;;;;;3.47;3.28;;;29.80;91.50;;;;;;5030842;28;20232;-76
2022/06/26 08:44:42;;;;;;;3.35;3.05;;;29.50;92.70;;;;;;5031842;28;20229;-75
2022/06/26 08:47:10;;;;;;;4.22;4.03;;;29.40;92.50;;;;;;5031341;28;20444;-76
2022/06/26 08:49:36;;;;;;;2.70;2.60;;;29.50;92.40;;;;;;5031976;28;20182;-76
2022/06/26 08:52:03;;;;;;;3.22;3.03;;;29.80;92.20;;;;;;5031873;28;20288;-77
2022/06/26 08:54:31;;;;;;;4.32;3.92;;;30.10;91.70;;;;;;5030896;28;20274;-76
2022/06/26 08:56:57;;;;;;;3.90;3.70;;;30.40;90.60;;;;;;5031016;28;20280;-77
2022/06/26 08:59:24;;;;;;;5.85;5.30;;;30.50;91.10;;;;;;5031530;28;20562;-76
2022/06/26 09:01:50;;;;;;;4.88;4.68;;;30.50;90.60;;;;;;5030903;28;20175;-77
2022/06/26 09:04:16;;;;;;;5.70;5.45;;;30.30;90.10;;;;;;5031532;28;20179;-76
2022/06/26 09:06:44;;;;;;;6.13;5.82;;;30.70;89.40;;;;;;5030038;28;20659;-77
2022/06/26 09:09:17;;;;;;;7.93;7.32;;;30.30;89.50;;;;;;5031075;28;20202;-76
2022/06/26 09:11:44;;;;;;;6.60;6.35;;;30.20;88.20;;;;;;5030440;28;20179;-76
2022/06/26 09:14:13;;;;;;;6.15;5.53;;;30.50;88.50;;;;;;5031228;28;20302;-76
2022/06/26 09:16:42;;;;;;;4.38;4.18;;;30.70;89.80;;;;;;5031103;28;20175;-76
2022/06/26 09:19:10;;;;;;;3.65;3.55;;;31.20;85.90;;;;;;5030871;28;20233;-76
2022/06/26 09:21:36;;;;;;;5.13;4.93;;;31.00;86.40;;;;;;5031270;28;20202;-76
2022/06/26 09:24:03;;;;;;;6.60;6.40;;;31.00;83.90;;;;;;5030151;28;20217;-76
2022/06/26 09:26:29;;;;;;;5.15;4.80;;;31.80;82.40;;;;;;5029315;28;20186;-76
2022/06/26 09:28:54;;;;;;;11.02;10.52;;;32.30;83.70;;;;;;5030352;28;20582;-76
2022/06/26 09:31:21;;;;;;;23.00;21.92;;;32.50;81.10;;;;;;5031227;28;20266;-76
2022/06/26 09:33:47;;;;;;;17.83;17.02;;;32.80;76.60;;;;;;5030066;28;20218;-76
2022/06/26 09:36:18;;;;;;;19.85;19.02;;;32.30;80.80;;;;;;5031092;28;20717;-76
2022/06/26 09:38:51;;;;;;;23.30;22.20;;;32.70;78.20;;;;;;5028968;28;20198;-76
2022/06/26 09:41:31;;;;;;;18.90;18.08;;;32.90;78.30;;;;;;5031124;28;20198;-76
2022/06/26 09:43:57;;;;;;;22.75;21.60;;;32.80;75.10;;;;;;5031143;28;20197;-76
2022/06/26 09:46:33;;;;;;;17.38;16.55;;;32.70;76.90;;;;;;5029963;28;20186;-76
2022/06/26 09:49:00;;;;;;;16.63;15.93;;;32.20;76.10;;;;;;5030175;28;20206;-76
2022/06/26 09:51:26;;;;;;;16.52;15.77;;;32.30;78.00;;;;;;5029668;28;20186;-76
2022/06/26 09:53:53;;;;;;;15.00;14.35;;;32.60;76.60;;;;;;5030772;28;20634;-76
2022/06/26 09:56:20;;;;;;;27.50;26.25;;;32.90;77.30;;;;;;5029738;28;20233;-76
2022/06/26 09:58:46;;;;;;;51.90;49.40;;;33.30;73.30;;;;;;5029862;28;20721;-77
2022/06/26 10:06:43;;;;;;;152.43;145.23;;;34.00;70.90;;;;;;5030307;28;20187;-77
2022/06/26 10:09:10;;;;;;;191.05;181.88;;;33.90;70.30;;;;;;5031306;28;20205;-76
2022/06/26 10:11:39;;;;;;;107.80;102.65;;;33.10;70.20;;;;;;5030391;28;20228;-77
2022/06/26 10:14:19;;;;;;;121.57;115.80;;;32.40;73.60;;;;;;5031465;28;20244;-76
2022/06/26 10:17:26;;;;;;;95.13;90.78;;;32.10;72.00;;;;;;5031439;28;20635;-77
2022/06/26 10:19:55;;;;;;;117.70;112.20;;;32.30;71.60;;;;;;5010234;28;20179;-75
2022/06/26 10:22:20;;;;;;;131.82;125.57;;;32.50;69.10;;;;;;5035085;28;20673;-75
2022/06/26 10:24:56;;;;;;;149.95;142.73;;;33.20;68.00;;;;;;5033225;28;20191;-76
2022/06/26 10:27:29;;;;;;;179.55;171.05;;;33.50;68.80;;;;;;5033837;28;20183;-76
2022/06/26 10:30:11;;;;;;;166.40;158.23;;;34.50;68.50;;;;;;5032860;28;20187;-76
2022/06/26 10:32:37;;;;;;;212.68;202.45;;;34.20;66.50;;;;;;5029230;28;20206;-76
2022/06/26 10:35:04;;;;;;;163.02;155.30;;;33.70;66.70;;;;;;5030602;28;20186;-76
2022/06/26 10:37:48;;;;;;;201.10;191.48;;;33.90;65.00;;;;;;5032507;28;20237;-76
2022/06/26 10:43:13;;;;;;;174.27;166.13;;;33.80;65.10;;;;;;5034296;28;20552;-76
2022/06/26 10:45:40;;;;;;;201.00;190.75;;;33.90;64.50;;;;;;5033004;28;20188;-76
2022/06/26 10:48:22;;;;;;;192.65;183.43;;;34.10;65.00;;;;;;5032074;28;20252;-76
2022/06/26 10:50:58;;;;;;;191.10;182.10;;;34.30;66.10;;;;;;5033978;28;20191;-76
2022/06/26 10:53:29;;;;;;;168.68;160.73;;;33.80;65.60;;;;;;5032795;28;20297;-76
2022/06/26 10:55:59;;;;;;;183.45;174.82;;;33.60;65.90;;;;;;5032796;28;20195;-76
2022/06/26 10:58:42;;;;;;;225.38;214.48;;;33.20;66.80;;;;;;5031723;28;20234;-76
2022/06/26 11:01:10;;;;;;;200.45;190.95;;;33.20;68.00;;;;;;5034105;28;20179;-76
2022/06/26 11:03:37;;;;;;;202.30;192.52;;;33.30;67.00;;;;;;5032544;28;20211;-76
2022/06/26 11:06:06;;;;;;;204.35;194.68;;;33.40;66.70;;;;;;5032537;28;20183;-76
2022/06/26 11:08:44;;;;;;;223.80;213.23;;;33.50;67.60;;;;;;5032792;28;20568;-76
2022/06/26 11:11:17;;;;;;;213.40;203.13;;;33.70;67.30;;;;;;5033780;28;20274;-76
2022/06/26 11:13:56;;;;;;;175.95;167.63;;;33.90;67.70;;;;;;5033584;28;20651;-75
2022/06/26 11:16:38;;;;;;;188.98;180.10;;;33.90;64.90;;;;;;5033520;28;20210;-76
2022/06/26 11:19:08;;;;;;;176.63;167.98;;;34.00;66.10;;;;;;5033091;28;20198;-76
2022/06/26 11:21:34;;;;;;;194.57;185.25;;;34.10;65.40;;;;;;5032595;28;20175;-76
2022/06/26 11:24:01;;;;;;;236.82;225.48;;;34.60;65.80;;;;;;5033834;28;20531;-75
2022/06/26 11:26:27;;;;;;;218.40;207.95;;;34.80;66.10;;;;;;5032400;28;20183;-76
2022/06/26 11:29:01;;;;;;;263.17;250.48;;;34.80;64.30;;;;;;5032601;28;20203;-76
2022/06/26 11:31:30;;;;;;;279.63;265.75;;;35.10;64.60;;;;;;5033706;28;20187;-76
2022/06/26 11:34:10;;;;;;;243.68;231.77;;;35.60;63.40;;;;;;5032346;28;20675;-76
2022/06/26 11:36:36;;;;;;;278.08;264.60;;;36.00;62.30;;;;;;5033822;28;20580;-76
2022/06/26 11:39:02;;;;;;;313.13;297.60;;;35.30;63.60;;;;;;5031234;28;20697;-76
2022/06/26 11:41:28;;;;;;;248.82;236.80;;;35.00;63.80;;;;;;5033161;28;20179;-76
2022/06/26 11:43:56;;;;;;;293.45;278.98;;;35.10;63.00;;;;;;5033026;28;20283;-76
2022/06/26 11:46:23;;;;;;;263.88;251.10;;;35.00;63.70;;;;;;5033104;28;20663;-76
2022/06/26 11:48:50;;;;;;;268.70;255.68;;;34.70;64.60;;;;;;5029974;28;20256;-76
2022/06/26 11:51:18;;;;;;;242.98;231.18;;;35.20;63.80;;;;;;5031923;28;20187;-76
2022/06/26 11:53:49;;;;;;;302.77;287.77;;;35.10;63.10;;;;;;5031878;28;20209;-76
2022/06/26 11:56:34;;;;;;;253.85;241.57;;;34.50;63.40;;;;;;5032788;28;20232;-76
2022/06/26 11:59:00;;;;;;;286.98;272.98;;;34.40;62.50;;;;;;5030510;28;20217;-76
2022/06/26 12:01:35;;;;;;;261.23;248.75;;;34.20;63.70;;;;;;5031604;28;20178;-76
2022/06/26 12:04:01;;;;;;;221.10;210.60;;;33.70;65.40;;;;;;5031736;28;20187;-76
2022/06/26 12:06:36;;;;;;;208.35;198.55;;;33.50;66.50;;;;;;5032753;28;20229;-77
2022/06/26 12:09:15;;;;;;;208.07;198.05;;;32.70;67.10;;;;;;5031844;28;20648;-77
2022/06/26 12:11:43;;;;;;;184.82;175.98;;;32.70;67.40;;;;;;5032594;28;20183;-76
2022/06/26 12:14:14;;;;;;;194.68;185.52;;;33.40;68.30;;;;;;5032392;28;20638;-76
2022/06/26 12:16:51;;;;;;;159.88;152.40;;;34.00;65.30;;;;;;5032275;28;20179;-77
2022/06/26 12:19:18;;;;;;;195.07;185.77;;;34.00;63.90;;;;;;5032356;28;20640;-76
2022/06/26 12:21:49;;;;;;;173.95;165.73;;;34.10;63.80;;;;;;5032480;28;20289;-77
2022/06/26 12:24:16;;;;;;;224.02;213.45;;;34.20;64.80;;;;;;5032363;28;20218;-76
2022/06/26 12:26:42;;;;;;;233.98;222.65;;;34.70;63.50;;;;;;5031510;28;20183;-77
2022/06/26 12:29:12;;;;;;;203.18;193.38;;;35.10;63.30;;;;;;5031463;28;20203;-77
2022/06/26 12:31:39;;;;;;;222.15;211.60;;;35.40;61.30;;;;;;5033022;28;20540;-76
2022/06/26 12:34:05;;;;;;;218.77;208.43;;;35.50;61.60;;;;;;5032254;28;20247;-76
2022/06/26 12:36:35;;;;;;;213.77;203.48;;;35.30;61.30;;;;;;5032138;28;20182;-76
2022/06/26 12:39:02;;;;;;;253.55;241.32;;;34.60;62.70;;;;;;5031210;28;20260;-76
2022/06/26 12:41:28;;;;;;;224.48;213.85;;;34.20;64.20;;;;;;5030897;28;20260;-75